Terminal Aerodrome Forecast
Issued by NWS

Home | Current Version | Previous Version | Text Only | Print | Product List | Glossary On
Versions: 1 2 3 4 5 6 7 8 9 10 11 12 13 14 15 16 17
965
FTUS43 KMQT 241137
TAFIWD
TAF
KIWD 241137Z 2412/2512 22005KT P6SM SCT025 BKN045
     FM241700 26010G16KT P6SM FEW070
     FM242000 28012G20KT P6SM FEW150
     FM250100 28008KT P6SM FEW200
     FM250400 26004KT P6SM FEW200
      AMD LTD TO CLD VIS AND WIND=

USA.gov is the U.S. government's official web portal to all federal, state and local government web resources and services.